createdAt,value
2022-10-03T00:04:33.173Z,9.30
2022-10-03T00:09:44.435Z,9.03
2022-10-03T00:14:56.183Z,9.67
2022-10-03T00:20:01.257Z,9.20
2022-10-03T00:25:28.328Z,9.27
2022-10-03T00:30:57.282Z,8.57
2022-10-03T00:36:35.566Z,9.53
2022-10-03T00:41:46.695Z,9.80
2022-10-03T00:47:01.353Z,10.27
2022-10-03T00:52:20.026Z,10.00
2022-10-03T00:57:40.507Z,8.80
2022-10-03T01:03:10.218Z,9.53
2022-10-03T01:08:44.269Z,9.20
2022-10-03T01:14:00.448Z,8.30
2022-10-03T01:19:17.537Z,8.60
2022-10-03T01:24:19.626Z,9.20
2022-10-03T01:29:53.953Z,8.80
2022-10-03T01:35:14.905Z,9.67
2022-10-03T01:40:30.417Z,9.30
2022-10-03T01:46:05.163Z,8.97
2022-10-03T01:51:35.033Z,9.07
2022-10-03T01:56:46.640Z,9.07
2022-10-03T02:01:54.416Z,10.03
2022-10-03T02:07:11.904Z,10.73
2022-10-03T02:12:35.308Z,9.60
2022-10-03T02:17:50.284Z,9.23
2022-10-03T02:22:57.957Z,10.17
2022-10-03T02:28:13.629Z,9.30
2022-10-03T02:33:37.450Z,8.73
2022-10-03T02:38:51.772Z,8.50
2022-10-03T02:44:36.317Z,7.73
2022-10-03T02:49:56.795Z,7.33
2022-10-03T02:55:11.212Z,7.97
2022-10-03T03:00:34.953Z,7.73
2022-10-03T03:06:14.961Z,7.70
2022-10-03T03:11:33.923Z,7.63
2022-10-03T03:16:51.287Z,7.15
2022-10-03T03:22:33.164Z,7.20
2022-10-03T03:27:50.545Z,7.30
2022-10-03T03:33:11.667Z,6.67
2022-10-03T03:38:28.347Z,7.17
2022-10-03T03:43:45.738Z,6.40
2022-10-03T03:49:00.134Z,6.60
2022-10-03T03:54:40.524Z,5.90
2022-10-03T04:00:07.083Z,6.47
2022-10-03T04:05:32.050Z,6.47
2022-10-03T04:10:46.469Z,6.73
2022-10-03T04:16:45.520Z,6.67
2022-10-03T04:21:50.961Z,7.67
2022-10-03T04:27:08.706Z,7.37
2022-10-03T04:32:40.356Z,8.40
2022-10-03T04:37:42.563Z,8.50
2022-10-03T04:43:02.255Z,9.10
2022-10-03T04:48:33.521Z,9.70
2022-10-03T04:53:50.959Z,10.47
2022-10-03T04:59:32.427Z,10.83
2022-10-03T05:05:20.053Z,12.40
2022-10-03T05:10:36.133Z,12.17
2022-10-03T05:15:47.299Z,12.47
2022-10-03T05:20:58.592Z,12.73
2022-10-03T05:26:24.722Z,11.37
2022-10-03T05:31:39.047Z,12.13
2022-10-03T05:37:17.018Z,12.97
2022-10-03T05:42:56.364Z,13.03
2022-10-03T05:48:01.567Z,12.80
2022-10-03T05:53:11.368Z,10.50
2022-10-03T05:58:25.978Z,11.00
2022-10-03T06:04:08.822Z,10.37
2022-10-03T06:09:35.976Z,11.03
2022-10-03T06:14:58.083Z,9.87
2022-10-03T06:20:04.707Z,9.53
2022-10-03T06:25:44.260Z,11.37
2022-10-03T06:30:52.468Z,7.85
2022-10-03T06:36:25.484Z,7.43
2022-10-03T06:41:39.873Z,6.90
2022-10-03T06:47:00.378Z,7.13
2022-10-03T06:52:11.975Z,7.10
2022-10-03T06:57:26.713Z,6.70
2022-10-03T07:03:10.603Z,7.03
2022-10-03T07:08:23.289Z,7.43
2022-10-03T07:13:53.016Z,7.17
2022-10-03T07:24:37.260Z,6.40
2022-10-03T07:30:05.172Z,5.97
2022-10-03T07:35:53.918Z,5.57
2022-10-03T07:41:21.880Z,6.23
2022-10-03T07:46:46.868Z,6.33
2022-10-03T07:52:20.365Z,6.20
2022-10-03T07:57:55.147Z,5.57
2022-10-03T08:03:15.879Z,6.33
2022-10-03T08:08:38.857Z,5.80
2022-10-03T08:13:50.034Z,5.67
2022-10-03T08:19:08.441Z,4.93
2022-10-03T08:24:18.816Z,4.73
2022-10-03T08:29:30.229Z,4.27
2022-10-03T08:34:57.483Z,5.17
2022-10-03T08:40:30.789Z,3.90
2022-10-03T08:45:42.149Z,2.20
2022-10-03T08:50:44.470Z,1.80
2022-10-03T08:55:55.927Z,1.03
2022-10-03T09:01:28.494Z,0.93
2022-10-03T09:07:12.309Z,1.30
2022-10-03T09:12:17.062Z,1.40
2022-10-03T09:18:07.857Z,1.23
2022-10-03T09:23:35.993Z,1.30
2022-10-03T09:29:18.236Z,1.00
2022-10-03T09:34:55.667Z,1.20
2022-10-03T09:40:09.956Z,1.43
2022-10-03T09:45:27.271Z,1.10
2022-10-03T09:50:47.263Z,1.10
2022-10-03T09:56:26.552Z,1.60
2022-10-03T10:01:36.091Z,1.50
2022-10-03T10:07:18.862Z,1.50
2022-10-03T10:12:44.538Z,1.90
2022-10-03T10:18:36.007Z,1.80
2022-10-03T10:23:52.157Z,1.40
2022-10-03T10:29:18.780Z,1.87
2022-10-03T10:34:23.927Z,0.90
2022-10-03T10:39:41.240Z,0.80
2022-10-03T10:45:41.248Z,0.60
2022-10-03T10:51:20.813Z,0.80
2022-10-03T10:56:43.264Z,0.85
2022-10-03T11:02:08.205Z,0.93
2022-10-03T11:07:35.748Z,0.80
2022-10-03T11:13:20.504Z,0.90
2022-10-03T11:18:44.494Z,1.00
2022-10-03T11:23:58.972Z,1.20
2022-10-03T11:29:59.716Z,1.00
2022-10-03T11:35:27.735Z,1.08
2022-10-03T11:40:56.640Z,1.10
2022-10-03T11:46:01.933Z,1.00
2022-10-03T11:51:09.752Z,0.80
2022-10-03T11:56:39.338Z,0.97
2022-10-03T12:08:08.665Z,0.93
2022-10-03T12:13:16.866Z,1.00
2022-10-03T12:18:28.257Z,1.00
2022-10-03T12:24:10.954Z,1.17
2022-10-03T12:29:15.151Z,1.10
2022-10-03T12:34:40.554Z,1.30
2022-10-03T12:40:02.735Z,1.20
2022-10-03T12:45:23.867Z,1.23
2022-10-03T12:50:47.597Z,1.10
2022-10-03T12:56:16.288Z,0.90
2022-10-03T13:01:29.526Z,0.80
2022-10-03T13:07:03.417Z,0.90
2022-10-03T13:12:31.580Z,0.70
2022-10-03T13:17:58.626Z,0.73
2022-10-03T13:23:24.626Z,0.80
2022-10-03T13:28:36.508Z,0.70
2022-10-03T13:33:48.684Z,0.50
2022-10-03T13:39:30.244Z,0.70
2022-10-03T13:44:37.103Z,0.97
2022-10-03T13:49:54.034Z,0.67
2022-10-03T13:55:19.625Z,0.77
2022-10-03T14:00:24.044Z,0.73
2022-10-03T14:05:45.135Z,0.77
2022-10-03T14:11:12.491Z,0.80
2022-10-03T14:16:27.463Z,1.20
2022-10-03T14:21:29.677Z,0.70
2022-10-03T14:26:39.716Z,0.70
2022-10-03T14:31:57.664Z,0.80
2022-10-03T14:37:16.294Z,0.60
2022-10-03T14:42:47.616Z,0.70
2022-10-03T14:47:52.086Z,1.07
2022-10-03T14:53:24.633Z,0.80
2022-10-03T14:58:35.761Z,0.90
2022-10-03T15:03:41.159Z,0.70
2022-10-03T15:08:49.270Z,0.83
2022-10-03T15:13:55.794Z,0.80
2022-10-03T15:19:07.451Z,0.80
2022-10-03T15:24:14.930Z,1.30
2022-10-03T15:29:18.318Z,0.60
2022-10-03T15:34:29.109Z,0.80
2022-10-03T15:39:38.220Z,0.70
2022-10-03T15:44:53.869Z,0.73
2022-10-03T15:50:07.396Z,0.77
2022-10-03T15:55:20.672Z,0.70
2022-10-03T16:00:32.502Z,0.70
2022-10-03T16:05:36.346Z,0.70
2022-10-03T16:11:08.337Z,0.67
2022-10-03T16:16:16.097Z,0.90
2022-10-03T16:21:43.975Z,0.50
2022-10-03T16:26:53.180Z,0.60
2022-10-03T16:32:01.134Z,0.40
2022-10-03T16:37:07.142Z,0.50
2022-10-03T16:42:12.474Z,0.50
2022-10-03T16:47:15.896Z,0.50
2022-10-03T16:52:39.019Z,0.43
2022-10-03T16:57:44.241Z,0.50
2022-10-03T17:02:52.479Z,0.53
2022-10-03T17:08:06.601Z,0.60
2022-10-03T17:13:28.763Z,0.60
2022-10-03T17:18:56.233Z,0.70
2022-10-03T17:24:12.071Z,0.87
2022-10-03T17:29:25.885Z,0.90
2022-10-03T17:34:32.939Z,0.50
2022-10-03T17:39:38.719Z,0.90
2022-10-03T17:44:55.047Z,0.90
2022-10-03T17:49:59.441Z,0.80
2022-10-03T17:55:04.378Z,1.23
2022-10-03T18:00:18.780Z,0.70
2022-10-03T18:05:25.328Z,0.90
2022-10-03T18:10:31.950Z,1.00
2022-10-03T18:15:48.748Z,0.80
2022-10-03T18:21:17.779Z,1.10
2022-10-03T18:26:28.749Z,1.30
2022-10-03T18:31:34.619Z,0.70
2022-10-03T18:36:45.186Z,0.70
2022-10-03T18:41:50.106Z,2.93
2022-10-03T18:47:20.401Z,0.50
2022-10-03T18:52:36.897Z,0.47
2022-10-03T18:57:44.223Z,0.60
2022-10-03T19:03:19.108Z,0.80
2022-10-03T19:08:35.769Z,0.80
2022-10-03T19:14:05.947Z,0.70
2022-10-03T19:24:46.204Z,0.70
2022-10-03T19:29:58.273Z,0.80
2022-10-03T19:35:04.836Z,0.97
2022-10-03T19:40:30.993Z,1.03
2022-10-03T19:45:33.457Z,0.80
2022-10-03T19:50:38.539Z,1.00
2022-10-03T19:55:41.461Z,0.80
2022-10-03T20:00:55.178Z,0.90
2022-10-03T20:06:18.493Z,1.00
2022-10-03T20:11:35.828Z,0.93
2022-10-03T20:16:43.990Z,1.50
2022-10-03T20:21:55.625Z,1.10
2022-10-03T20:27:13.878Z,1.07
2022-10-03T20:32:17.147Z,0.80
2022-10-03T20:37:42.814Z,1.23
2022-10-03T20:42:47.998Z,1.00
2022-10-03T20:48:25.812Z,0.90
2022-10-03T20:53:29.830Z,0.93
2022-10-03T20:58:35.272Z,1.00
2022-10-03T21:03:51.953Z,1.20
2022-10-03T21:08:55.994Z,0.83
2022-10-03T21:14:25.876Z,1.00
2022-10-03T21:19:34.188Z,0.90
2022-10-03T21:24:45.641Z,0.80
2022-10-03T21:29:58.065Z,0.73
2022-10-03T21:35:25.338Z,0.97
2022-10-03T21:41:05.002Z,1.10
2022-10-03T21:46:17.121Z,1.20
2022-10-03T21:51:48.445Z,1.40
2022-10-03T21:57:03.107Z,1.23
2022-10-03T22:02:45.056Z,1.20
2022-10-03T22:07:47.382Z,1.30
2022-10-03T22:12:56.946Z,1.30
2022-10-03T22:23:21.314Z,1.30
2022-10-03T22:28:27.107Z,1.63
2022-10-03T22:34:08.693Z,1.40
2022-10-03T22:39:14.005Z,1.60
2022-10-03T22:44:17.929Z,1.37
2022-10-03T22:49:39.135Z,1.43
2022-10-03T22:54:42.574Z,1.87
2022-10-03T23:00:08.662Z,1.93
2022-10-03T23:05:37.292Z,1.63
2022-10-03T23:10:59.536Z,1.20
2022-10-03T23:16:41.301Z,1.70
2022-10-03T23:21:48.128Z,1.60
2022-10-03T23:27:43.399Z,2.10
2022-10-03T23:32:48.648Z,1.57
2022-10-03T23:37:51.250Z,1.90
2022-10-03T23:43:29.728Z,1.70
2022-10-03T23:53:39.084Z,1.60
2022-10-03T23:58:41.348Z,1.67
